Flight Track Log - Related Links

Times and Time Zones

All times are in EDT time to prevent confusion due to time zone crossing. See the USC105 flight status page for this flight to view local times or setup timezone preferences in your user account.

Time Position Orientation Groundspeed Altitude Reporting Facility
EDT Latitude Longitude Course Direction KTS km/h feet Rate Location/Type
Thu 23:06:38 41.5525 -81.6764 350° North 132 245 2,000  Level Cleveland Center
Thu 23:07:38 41.5897 -81.6936 341° North 139 257 2,900 942 Climbing Cleveland Center
Thu 23:08:39 41.6144 -81.7303 312° West 137 254 3,900 934 Climbing Cleveland Center
Thu 23:09:40 41.6306 -81.7778 294° West 136 253 4,800 893 Climbing Cleveland Center
Thu 23:10:40 41.6469 -81.8197 298° West 135 249 5,700 893 Climbing Cleveland Center
Thu 23:11:00 41.4118 -81.9813 246° West  Level FlightAware Approximate
Thu 23:11:41 41.6650 -81.8644 298° West 131 243 6,600  Level Cleveland Center
Thu 23:12:42 41.6814 -81.9067 297° West 133 246 7,400 694 Climbing Cleveland Center
Thu 23:13:42 41.6953 -81.9597 289° West 148 274 8,000 347 Climbing Cleveland Center
Thu 23:14:43 41.7175 -82.0158 298° West 182 336 8,100 50 Climbing Cleveland Center
Thu 23:15:43 41.7417 -82.0775 298° West 181 335 8,100  Level Cleveland Center
Thu 23:16:44 41.7617 -82.1392 294° West 184 341 8,100  Level Cleveland Center
Thu 23:17:45 41.7839 -82.2039 295° West 184 341 8,100  Level Cleveland Center
Thu 23:18:45 41.8058 -82.2628 297° West 184 341 8,100  Level Cleveland Center
Thu 23:19:01 41.8142 -82.2769 308° West 184 341 8,100  Level Cleveland Center
Thu 23:19:50 41.8300 -82.3303 292° West 185 343 8,100  Level Cleveland Center
Thu 23:20:50 41.8539 -82.3922 297° West 186 344 8,100  Level Cleveland Center
Thu 23:21:45 41.8739 -82.4517 294° West 187 346 8,100  Level Cleveland Center
Thu 23:22:39 41.8917 -82.5106 292° West 185 343 8,100  Level Cleveland Center
Thu 23:23:40 41.9136 -82.5700 296° West 185 343 8,100  Level Cleveland Center
Thu 23:24:41 41.9375 -82.6347 296° West 189 349 8,100  Level Cleveland Center
Thu 23:25:41 41.9592 -82.6969 295° West 188 348 8,100  Level Cleveland Center
Thu 23:26:42 41.9808 -82.7647 293° West 189 349 8,100  Level Cleveland Center
Thu 23:27:36 42.0006 -82.8214 295° West 190 352 8,100  Level Cleveland Center
Thu 23:28:37 42.0222 -82.8892 293° West 190 352 8,100 -49 Level Cleveland Center
Thu 23:29:38 42.0461 -82.9514 297° West 188 348 8,000 -397 Descending Cleveland Center
Thu 23:30:38 42.0886 -83.0006 319° Northwest 211 391 7,300 -744 Descending Cleveland Center
Thu 23:31:39 42.1314 -83.0583 315° West 212 393 6,500 -639 Descending Cleveland Center
Thu 23:32:40 42.1675 -83.1158 310° West 201 372 6,000 -545 Descending Cleveland Center
Thu 23:33:40 42.1953 -83.1814 300° West 203 377 5,400 -425 Descending Cleveland Center
Thu 23:34:47 42.2228 -83.2525 298° West 185 343 5,100 -135 Descending Cleveland Center
Thu 23:35:53 42.2486 -83.3125 300° West 171 317 5,100 -135 Level Cleveland Center
Thu 23:37:00 42.2719 -83.3753 297° West 162 299 4,800 -563 Descending Cleveland Center
Thu 23:38:01 42.3125 -83.4219 320° Northwest 201 372 3,900 -1,091 Descending Cleveland Center
Thu 23:39:01 42.2969 -83.4606 241° Southwest 198 367 2,600 -1,091 Descending Cleveland Center
Thu 23:40:02 42.2606 -83.5011 220° Southwest 142 262 1,700 -885 Descending Cleveland Center
Thu 23:42:00 42.2393 -83.5310 226° Southwest  Level Estimated

Login

Don't have an account? Register now (free) for customized features, flight alerts, and more!